الصفحة الرئيسية
METAR-TAF:

METAR-TAF

مطار :

تشيليابينسك, روسيا

دائرة عرض: 55-10N, خط طول: 061-24E, ارتفاع: 234 متر

مراقبة الطقس الحالي

تاريخ ووقت الإصدار 30 دقيقة قبل الساعة 22:30UTC
ريح 2 عقدة من الشرق/الشمال الشرقي
درجة الحرارة 8°درجة مئوية
الرطوبة 93%
ضغط 1018 hPa
الرؤية: 3800 متر
غشاء

METAR: USCC 242230Z 06001MPS 3800 BR NSC 08/07 Q1018 R09/000060 TEMPO 0500 FG VV005 RMK QFE743

زمن: 04:00 (23:00 UTC)

توقعات

تاريخ ووقت الإصدار 3ساعات و 0 دقيقة قبل الساعة 20:00UTC
التوقعات صالحة من24 الساعة 21 UTC إلى 25 الساعة 21 UTC
ريح 6 عقدة من الجنوب الشرقي
الرؤية: 3100 متر
غشاء, دخان
مؤقت
من 24 الساعة 21 UTC إلى 25 الساعة 04 UTC
الرؤية: 0300 متر
غيوم متفرقة على ارتفاع 1100 قدم
ضباب
من 25 الساعة 0600 UTC
ريح 6 عقدة من الجنوب تتزايد حتى 16 عقدة
الرؤية 10 كم أو أكثر
الغيوم لا تقل 1500 م ولا وجود لمزنة ركامية السحاب الأسود

TAF: USCC 242000Z 2421/2521 14003MPS 3100 BR FU NSC TEMPO 2421/2504 0300 FG SCT011 FM250600 17003G08MPS CAVOK

أرصاد الطقس والتوقعات من أكثر من 4000 مطار (تقارير الطقس للمطار METAR والتنبؤ بالطقس بالمطارTAF).

المحطات المتاحة هي النقط الصفراء والحمراء على الخريطة.

حرك المؤشر فوق النقطة لمعرفة اسم المحطة.

ثم انقر لمعرفة أرصاد وتوقعات الطقس.

لتغيير الخارطة: اضغط على الأزرار الخضراء مع رمز الصليب الأسود للتكبير. على الزر الأخضر مع شرطة للتصغير، أو على الأسهم الخضراء للخرائط المجاورة.


METAR-TAF: